sensor_id;sensor_type;location;lat;lon;timestamp;P1;durP1;ratioP1;P2;durP2;ratioP2
16063;SDS011;8136;53.172;8.256;2022-08-02T00:01:50;2.93;;;1.50;;
16063;SDS011;8136;53.172;8.256;2022-08-02T00:04:17;3.53;;;1.80;;
16063;SDS011;8136;53.172;8.256;2022-08-02T00:06:44;5.33;;;2.10;;
16063;SDS011;8136;53.172;8.256;2022-08-02T00:09:12;4.57;;;2.10;;
16063;SDS011;8136;53.172;8.256;2022-08-02T00:11:40;2.13;;;1.87;;
16063;SDS011;8136;53.172;8.256;2022-08-02T00:14:07;3.33;;;2.20;;
16063;SDS011;8136;53.172;8.256;2022-08-02T00:16:34;3.30;;;1.77;;
16063;SDS011;8136;53.172;8.256;2022-08-02T00:19:00;4.60;;;1.87;;
16063;SDS011;8136;53.172;8.256;2022-08-02T00:21:27;6.20;;;2.40;;
16063;SDS011;8136;53.172;8.256;2022-08-02T00:23:54;4.60;;;2.30;;
16063;SDS011;8136;53.172;8.256;2022-08-02T00:26:22;3.63;;;2.37;;
16063;SDS011;8136;53.172;8.256;2022-08-02T00:28:49;6.83;;;2.53;;
16063;SDS011;8136;53.172;8.256;2022-08-02T00:31:16;3.17;;;2.13;;
16063;SDS011;8136;53.172;8.256;2022-08-02T00:33:42;4.00;;;2.43;;
16063;SDS011;8136;53.172;8.256;2022-08-02T00:36:09;3.87;;;2.37;;
16063;SDS011;8136;53.172;8.256;2022-08-02T00:38:36;3.17;;;2.27;;
16063;SDS011;8136;53.172;8.256;2022-08-02T00:41:03;5.43;;;2.20;;
16063;SDS011;8136;53.172;8.256;2022-08-02T00:43:37;5.17;;;2.67;;
16063;SDS011;8136;53.172;8.256;2022-08-02T00:46:04;3.73;;;2.63;;
16063;SDS011;8136;53.172;8.256;2022-08-02T00:48:31;6.07;;;2.77;;
16063;SDS011;8136;53.172;8.256;2022-08-02T00:50:57;4.67;;;2.13;;
16063;SDS011;8136;53.172;8.256;2022-08-02T00:53:24;6.10;;;2.30;;
16063;SDS011;8136;53.172;8.256;2022-08-02T00:55:51;3.50;;;2.30;;
16063;SDS011;8136;53.172;8.256;2022-08-02T00:58:18;2.33;;;1.93;;
16063;SDS011;8136;53.172;8.256;2022-08-02T01:00:46;2.83;;;2.30;;
16063;SDS011;8136;53.172;8.256;2022-08-02T01:03:13;5.80;;;2.47;;
16063;SDS011;8136;53.172;8.256;2022-08-02T01:05:40;4.60;;;2.43;;
16063;SDS011;8136;53.172;8.256;2022-08-02T01:08:08;4.30;;;2.53;;
16063;SDS011;8136;53.172;8.256;2022-08-02T01:10:35;4.30;;;2.27;;
16063;SDS011;8136;53.172;8.256;2022-08-02T01:13:02;3.50;;;2.27;;
16063;SDS011;8136;53.172;8.256;2022-08-02T01:15:28;5.40;;;2.50;;
16063;SDS011;8136;53.172;8.256;2022-08-02T01:17:58;3.90;;;2.20;;
16063;SDS011;8136;53.172;8.256;2022-08-02T01:20:34;6.50;;;2.57;;
16063;SDS011;8136;53.172;8.256;2022-08-02T01:23:44;2.73;;;2.53;;
16063;SDS011;8136;53.172;8.256;2022-08-02T01:26:30;3.10;;;2.80;;
16063;SDS011;8136;53.172;8.256;2022-08-02T01:29:07;8.07;;;2.97;;
16063;SDS011;8136;53.172;8.256;2022-08-02T01:31:39;4.23;;;3.10;;
16063;SDS011;8136;53.172;8.256;2022-08-02T01:34:17;5.77;;;2.90;;
16063;SDS011;8136;53.172;8.256;2022-08-02T01:36:48;3.90;;;2.70;;
16063;SDS011;8136;53.172;8.256;2022-08-02T01:39:22;4.87;;;2.70;;
16063;SDS011;8136;53.172;8.256;2022-08-02T01:41:52;4.67;;;2.90;;
16063;SDS011;8136;53.172;8.256;2022-08-02T01:44:22;4.63;;;2.70;;
16063;SDS011;8136;53.172;8.256;2022-08-02T01:46:51;3.83;;;2.90;;
16063;SDS011;8136;53.172;8.256;2022-08-02T01:49:20;3.60;;;3.10;;
16063;SDS011;8136;53.172;8.256;2022-08-02T01:51:48;3.47;;;3.13;;
16063;SDS011;8136;53.172;8.256;2022-08-02T01:54:35;4.47;;;2.70;;
16063;SDS011;8136;53.172;8.256;2022-08-02T01:57:04;3.47;;;2.33;;
16063;SDS011;8136;53.172;8.256;2022-08-02T01:59:36;2.97;;;2.27;;
16063;SDS011;8136;53.172;8.256;2022-08-02T02:02:05;3.37;;;2.87;;
16063;SDS011;8136;53.172;8.256;2022-08-02T02:04:35;4.77;;;3.63;;
16063;SDS011;8136;53.172;8.256;2022-08-02T02:07:02;6.80;;;3.50;;
16063;SDS011;8136;53.172;8.256;2022-08-02T02:09:30;7.57;;;3.60;;
16063;SDS011;8136;53.172;8.256;2022-08-02T02:12:03;3.57;;;2.87;;
16063;SDS011;8136;53.172;8.256;2022-08-02T02:14:31;4.37;;;3.67;;
16063;SDS011;8136;53.172;8.256;2022-08-02T02:17:01;4.33;;;3.60;;
16063;SDS011;8136;53.172;8.256;2022-08-02T02:19:28;3.43;;;3.10;;
16063;SDS011;8136;53.172;8.256;2022-08-02T02:21:58;4.90;;;3.87;;
16063;SDS011;8136;53.172;8.256;2022-08-02T02:24:25;4.00;;;3.33;;
16063;SDS011;8136;53.172;8.256;2022-08-02T02:26:52;5.70;;;3.20;;
16063;SDS011;8136;53.172;8.256;2022-08-02T02:29:20;3.80;;;3.40;;
16063;SDS011;8136;53.172;8.256;2022-08-02T02:31:49;3.17;;;2.80;;
16063;SDS011;8136;53.172;8.256;2022-08-02T02:34:24;3.70;;;3.13;;
16063;SDS011;8136;53.172;8.256;2022-08-02T02:36:53;4.43;;;3.10;;
16063;SDS011;8136;53.172;8.256;2022-08-02T02:39:24;5.50;;;3.37;;
16063;SDS011;8136;53.172;8.256;2022-08-02T02:41:54;3.43;;;3.00;;
16063;SDS011;8136;53.172;8.256;2022-08-02T02:44:23;4.33;;;3.20;;
16063;SDS011;8136;53.172;8.256;2022-08-02T02:46:51;5.23;;;3.67;;
16063;SDS011;8136;53.172;8.256;2022-08-02T02:49:20;4.77;;;3.30;;
16063;SDS011;8136;53.172;8.256;2022-08-02T02:51:49;4.50;;;3.20;;
16063;SDS011;8136;53.172;8.256;2022-08-02T02:54:16;5.83;;;3.73;;
16063;SDS011;8136;53.172;8.256;2022-08-02T02:56:44;5.27;;;3.23;;
16063;SDS011;8136;53.172;8.256;2022-08-02T02:59:12;5.17;;;2.90;;
16063;SDS011;8136;53.172;8.256;2022-08-02T03:01:39;4.37;;;3.10;;
16063;SDS011;8136;53.172;8.256;2022-08-02T03:04:08;4.20;;;2.77;;
16063;SDS011;8136;53.172;8.256;2022-08-02T03:06:36;5.47;;;3.17;;
16063;SDS011;8136;53.172;8.256;2022-08-02T03:09:05;6.03;;;3.87;;
16063;SDS011;8136;53.172;8.256;2022-08-02T03:11:33;6.13;;;3.40;;
16063;SDS011;8136;53.172;8.256;2022-08-02T03:14:01;3.67;;;3.27;;
16063;SDS011;8136;53.172;8.256;2022-08-02T03:16:30;4.83;;;3.40;;
16063;SDS011;8136;53.172;8.256;2022-08-02T03:18:57;8.87;;;5.60;;
16063;SDS011;8136;53.172;8.256;2022-08-02T03:21:27;5.70;;;5.17;;
16063;SDS011;8136;53.172;8.256;2022-08-02T03:23:54;5.90;;;4.40;;
16063;SDS011;8136;53.172;8.256;2022-08-02T03:26:22;4.73;;;4.10;;
16063;SDS011;8136;53.172;8.256;2022-08-02T03:28:49;7.60;;;5.60;;
16063;SDS011;8136;53.172;8.256;2022-08-02T03:31:16;6.87;;;4.80;;
16063;SDS011;8136;53.172;8.256;2022-08-02T03:33:43;11.07;;;6.87;;
16063;SDS011;8136;53.172;8.256;2022-08-02T03:36:12;8.53;;;6.17;;
16063;SDS011;8136;53.172;8.256;2022-08-02T03:38:41;8.20;;;6.07;;
16063;SDS011;8136;53.172;8.256;2022-08-02T03:41:10;8.07;;;5.53;;
16063;SDS011;8136;53.172;8.256;2022-08-02T03:43:40;8.20;;;5.73;;
16063;SDS011;8136;53.172;8.256;2022-08-02T03:46:08;8.97;;;5.57;;
16063;SDS011;8136;53.172;8.256;2022-08-02T03:48:37;8.57;;;5.13;;
16063;SDS011;8136;53.172;8.256;2022-08-02T03:51:04;6.30;;;4.67;;
16063;SDS011;8136;53.172;8.256;2022-08-02T03:53:32;11.07;;;5.53;;
16063;SDS011;8136;53.172;8.256;2022-08-02T03:56:00;6.40;;;5.40;;
16063;SDS011;8136;53.172;8.256;2022-08-02T03:58:27;8.80;;;5.40;;
16063;SDS011;8136;53.172;8.256;2022-08-02T04:00:56;6.67;;;4.40;;
16063;SDS011;8136;53.172;8.256;2022-08-02T04:03:23;5.33;;;4.30;;
16063;SDS011;8136;53.172;8.256;2022-08-02T04:05:50;7.37;;;5.10;;
16063;SDS011;8136;53.172;8.256;2022-08-02T04:08:17;8.00;;;4.67;;
16063;SDS011;8136;53.172;8.256;2022-08-02T04:10:44;5.97;;;4.50;;
16063;SDS011;8136;53.172;8.256;2022-08-02T04:13:30;5.47;;;3.93;;
16063;SDS011;8136;53.172;8.256;2022-08-02T04:16:02;8.03;;;4.23;;
16063;SDS011;8136;53.172;8.256;2022-08-02T04:18:33;7.80;;;4.13;;
16063;SDS011;8136;53.172;8.256;2022-08-02T04:21:05;5.70;;;4.03;;
16063;SDS011;8136;53.172;8.256;2022-08-02T04:23:32;6.53;;;4.37;;
16063;SDS011;8136;53.172;8.256;2022-08-02T04:26:01;8.23;;;4.43;;
16063;SDS011;8136;53.172;8.256;2022-08-02T04:28:29;8.47;;;4.27;;
16063;SDS011;8136;53.172;8.256;2022-08-02T04:30:59;8.00;;;4.37;;
16063;SDS011;8136;53.172;8.256;2022-08-02T04:33:27;5.67;;;3.80;;
16063;SDS011;8136;53.172;8.256;2022-08-02T04:35:54;5.17;;;3.90;;
16063;SDS011;8136;53.172;8.256;2022-08-02T04:38:22;9.17;;;4.70;;
16063;SDS011;8136;53.172;8.256;2022-08-02T04:40:50;5.67;;;4.37;;
16063;SDS011;8136;53.172;8.256;2022-08-02T04:43:18;6.83;;;3.90;;
16063;SDS011;8136;53.172;8.256;2022-08-02T04:45:46;4.70;;;3.47;;
16063;SDS011;8136;53.172;8.256;2022-08-02T04:48:16;7.90;;;3.97;;
16063;SDS011;8136;53.172;8.256;2022-08-02T04:50:42;5.03;;;3.83;;
16063;SDS011;8136;53.172;8.256;2022-08-02T04:53:09;13.83;;;3.97;;
16063;SDS011;8136;53.172;8.256;2022-08-02T04:55:36;9.10;;;4.27;;
16063;SDS011;8136;53.172;8.256;2022-08-02T04:58:03;7.00;;;3.90;;
16063;SDS011;8136;53.172;8.256;2022-08-02T05:00:29;5.50;;;3.77;;
16063;SDS011;8136;53.172;8.256;2022-08-02T05:02:56;7.07;;;3.80;;
16063;SDS011;8136;53.172;8.256;2022-08-02T05:05:25;6.60;;;4.13;;
16063;SDS011;8136;53.172;8.256;2022-08-02T05:07:52;7.00;;;3.80;;
16063;SDS011;8136;53.172;8.256;2022-08-02T05:10:19;6.00;;;3.30;;
16063;SDS011;8136;53.172;8.256;2022-08-02T05:12:46;4.80;;;3.70;;
16063;SDS011;8136;53.172;8.256;2022-08-02T05:15:13;5.20;;;3.83;;
16063;SDS011;8136;53.172;8.256;2022-08-02T05:17:42;8.13;;;4.07;;
16063;SDS011;8136;53.172;8.256;2022-08-02T05:20:09;8.20;;;4.37;;
16063;SDS011;8136;53.172;8.256;2022-08-02T05:22:39;7.60;;;3.90;;
16063;SDS011;8136;53.172;8.256;2022-08-02T05:25:06;6.07;;;3.40;;
16063;SDS011;8136;53.172;8.256;2022-08-02T05:27:34;7.67;;;3.57;;
16063;SDS011;8136;53.172;8.256;2022-08-02T05:30:01;4.93;;;3.40;;
16063;SDS011;8136;53.172;8.256;2022-08-02T05:32:28;8.70;;;3.33;;
16063;SDS011;8136;53.172;8.256;2022-08-02T05:34:55;8.07;;;4.23;;
16063;SDS011;8136;53.172;8.256;2022-08-02T05:37:21;5.13;;;3.80;;
16063;SDS011;8136;53.172;8.256;2022-08-02T05:39:50;7.30;;;3.57;;
16063;SDS011;8136;53.172;8.256;2022-08-02T05:42:16;8.73;;;3.73;;
16063;SDS011;8136;53.172;8.256;2022-08-02T05:44:43;7.47;;;3.27;;
16063;SDS011;8136;53.172;8.256;2022-08-02T05:47:10;8.07;;;4.00;;
16063;SDS011;8136;53.172;8.256;2022-08-02T05:49:36;8.23;;;3.90;;
16063;SDS011;8136;53.172;8.256;2022-08-02T05:52:06;6.10;;;3.30;;
16063;SDS011;8136;53.172;8.256;2022-08-02T05:54:41;6.47;;;3.67;;
16063;SDS011;8136;53.172;8.256;2022-08-02T05:57:19;7.50;;;3.83;;
16063;SDS011;8136;53.172;8.256;2022-08-02T05:59:56;6.70;;;3.50;;
16063;SDS011;8136;53.172;8.256;2022-08-02T06:02:34;8.80;;;3.60;;
16063;SDS011;8136;53.172;8.256;2022-08-02T06:05:10;7.20;;;3.03;;
16063;SDS011;8136;53.172;8.256;2022-08-02T06:07:39;5.57;;;3.37;;
16063;SDS011;8136;53.172;8.256;2022-08-02T06:10:08;6.70;;;3.70;;
16063;SDS011;8136;53.172;8.256;2022-08-02T06:12:40;5.13;;;3.40;;
16063;SDS011;8136;53.172;8.256;2022-08-02T06:15:12;6.53;;;3.43;;
16063;SDS011;8136;53.172;8.256;2022-08-02T06:17:41;9.00;;;3.20;;
16063;SDS011;8136;53.172;8.256;2022-08-02T06:20:09;7.50;;;3.93;;
16063;SDS011;8136;53.172;8.256;2022-08-02T06:22:39;8.43;;;3.30;;
16063;SDS011;8136;53.172;8.256;2022-08-02T06:25:07;6.07;;;3.20;;
16063;SDS011;8136;53.172;8.256;2022-08-02T06:27:34;7.83;;;3.30;;
16063;SDS011;8136;53.172;8.256;2022-08-02T06:30:05;7.50;;;3.60;;
16063;SDS011;8136;53.172;8.256;2022-08-02T06:32:33;5.80;;;3.87;;
16063;SDS011;8136;53.172;8.256;2022-08-02T06:35:00;8.90;;;3.73;;
16063;SDS011;8136;53.172;8.256;2022-08-02T06:37:30;7.93;;;3.47;;
16063;SDS011;8136;53.172;8.256;2022-08-02T06:40:05;6.40;;;3.33;;
16063;SDS011;8136;53.172;8.256;2022-08-02T06:42:39;7.60;;;3.53;;
16063;SDS011;8136;53.172;8.256;2022-08-02T06:45:14;8.43;;;3.40;;
16063;SDS011;8136;53.172;8.256;2022-08-02T06:47:41;6.83;;;3.47;;
16063;SDS011;8136;53.172;8.256;2022-08-02T06:50:08;6.67;;;3.70;;
16063;SDS011;8136;53.172;8.256;2022-08-02T06:52:35;6.70;;;3.33;;
16063;SDS011;8136;53.172;8.256;2022-08-02T06:55:03;8.07;;;3.40;;
16063;SDS011;8136;53.172;8.256;2022-08-02T06:57:31;9.37;;;3.47;;
16063;SDS011;8136;53.172;8.256;2022-08-02T06:59:58;5.77;;;3.07;;
16063;SDS011;8136;53.172;8.256;2022-08-02T07:02:29;6.23;;;3.47;;
16063;SDS011;8136;53.172;8.256;2022-08-02T07:04:56;7.20;;;2.93;;
16063;SDS011;8136;53.172;8.256;2022-08-02T07:07:23;9.57;;;3.43;;
16063;SDS011;8136;53.172;8.256;2022-08-02T07:09:49;8.60;;;3.10;;
16063;SDS011;8136;53.172;8.256;2022-08-02T07:12:16;7.93;;;3.50;;
16063;SDS011;8136;53.172;8.256;2022-08-02T07:14:43;6.13;;;3.20;;
16063;SDS011;8136;53.172;8.256;2022-08-02T07:17:10;5.87;;;3.27;;
16063;SDS011;8136;53.172;8.256;2022-08-02T07:19:38;6.10;;;3.30;;
16063;SDS011;8136;53.172;8.256;2022-08-02T07:22:05;8.17;;;3.13;;
16063;SDS011;8136;53.172;8.256;2022-08-02T07:24:31;7.07;;;3.13;;
16063;SDS011;8136;53.172;8.256;2022-08-02T07:26:58;10.40;;;3.20;;
16063;SDS011;8136;53.172;8.256;2022-08-02T07:29:25;7.23;;;2.80;;
16063;SDS011;8136;53.172;8.256;2022-08-02T07:31:52;8.50;;;3.40;;
16063;SDS011;8136;53.172;8.256;2022-08-02T07:34:19;10.67;;;2.80;;
16063;SDS011;8136;53.172;8.256;2022-08-02T07:36:47;7.07;;;2.80;;
16063;SDS011;8136;53.172;8.256;2022-08-02T07:39:14;8.03;;;3.10;;
16063;SDS011;8136;53.172;8.256;2022-08-02T07:41:40;7.40;;;2.83;;
16063;SDS011;8136;53.172;8.256;2022-08-02T07:44:07;7.03;;;3.17;;
16063;SDS011;8136;53.172;8.256;2022-08-02T07:46:34;5.40;;;2.53;;
16063;SDS011;8136;53.172;8.256;2022-08-02T07:49:01;5.63;;;2.63;;
16063;SDS011;8136;53.172;8.256;2022-08-02T07:51:28;6.67;;;2.67;;
16063;SDS011;8136;53.172;8.256;2022-08-02T07:53:58;11.00;;;2.63;;
16063;SDS011;8136;53.172;8.256;2022-08-02T07:56:25;6.43;;;2.20;;
16063;SDS011;8136;53.172;8.256;2022-08-02T07:58:51;8.07;;;3.03;;
16063;SDS011;8136;53.172;8.256;2022-08-02T08:01:18;7.23;;;2.60;;
16063;SDS011;8136;53.172;8.256;2022-08-02T08:03:45;5.73;;;2.47;;
16063;SDS011;8136;53.172;8.256;2022-08-02T08:06:12;7.50;;;2.60;;
16063;SDS011;8136;53.172;8.256;2022-08-02T08:08:39;4.17;;;2.20;;
16063;SDS011;8136;53.172;8.256;2022-08-02T08:11:07;4.47;;;2.07;;
16063;SDS011;8136;53.172;8.256;2022-08-02T08:13:33;7.57;;;2.53;;
16063;SDS011;8136;53.172;8.256;2022-08-02T08:16:00;7.53;;;2.30;;
16063;SDS011;8136;53.172;8.256;2022-08-02T08:18:28;4.50;;;2.10;;
16063;SDS011;8136;53.172;8.256;2022-08-02T08:20:54;4.27;;;2.10;;
16063;SDS011;8136;53.172;8.256;2022-08-02T08:23:22;5.40;;;2.17;;
16063;SDS011;8136;53.172;8.256;2022-08-02T08:25:48;3.90;;;1.67;;
16063;SDS011;8136;53.172;8.256;2022-08-02T08:28:17;4.50;;;1.80;;
16063;SDS011;8136;53.172;8.256;2022-08-02T08:30:44;5.77;;;2.17;;
16063;SDS011;8136;53.172;8.256;2022-08-02T08:33:11;6.97;;;1.60;;
16063;SDS011;8136;53.172;8.256;2022-08-02T08:35:38;6.03;;;1.67;;
16063;SDS011;8136;53.172;8.256;2022-08-02T08:38:05;5.10;;;1.77;;
16063;SDS011;8136;53.172;8.256;2022-08-02T08:40:32;4.97;;;1.70;;
16063;SDS011;8136;53.172;8.256;2022-08-02T08:42:59;3.37;;;1.43;;
16063;SDS011;8136;53.172;8.256;2022-08-02T08:45:27;4.10;;;1.40;;
16063;SDS011;8136;53.172;8.256;2022-08-02T08:47:55;6.33;;;1.87;;
16063;SDS011;8136;53.172;8.256;2022-08-02T08:50:26;5.07;;;1.87;;
16063;SDS011;8136;53.172;8.256;2022-08-02T08:53:00;5.17;;;1.83;;
16063;SDS011;8136;53.172;8.256;2022-08-02T08:55:29;5.80;;;1.40;;
16063;SDS011;8136;53.172;8.256;2022-08-02T08:57:58;4.07;;;1.50;;
16063;SDS011;8136;53.172;8.256;2022-08-02T09:00:27;5.07;;;1.50;;
16063;SDS011;8136;53.172;8.256;2022-08-02T09:02:56;4.27;;;1.60;;
16063;SDS011;8136;53.172;8.256;2022-08-02T09:05:24;5.10;;;2.17;;
16063;SDS011;8136;53.172;8.256;2022-08-02T09:07:51;3.03;;;1.43;;
16063;SDS011;8136;53.172;8.256;2022-08-02T09:13:11;5.13;;;1.77;;
16063;SDS011;8136;53.172;8.256;2022-08-02T09:15:43;4.40;;;1.77;;
16063;SDS011;8136;53.172;8.256;2022-08-02T09:18:10;3.63;;;1.40;;
16063;SDS011;8136;53.172;8.256;2022-08-02T09:20:50;4.53;;;1.67;;
16063;SDS011;8136;53.172;8.256;2022-08-02T09:23:19;5.40;;;1.67;;
16063;SDS011;8136;53.172;8.256;2022-08-02T09:25:53;4.80;;;1.87;;
16063;SDS011;8136;53.172;8.256;2022-08-02T09:28:24;4.77;;;1.67;;
16063;SDS011;8136;53.172;8.256;2022-08-02T09:30:54;4.93;;;1.27;;
16063;SDS011;8136;53.172;8.256;2022-08-02T09:33:25;8.37;;;1.50;;
16063;SDS011;8136;53.172;8.256;2022-08-02T09:35:58;3.07;;;1.20;;
16063;SDS011;8136;53.172;8.256;2022-08-02T09:38:26;1.63;;;1.17;;
16063;SDS011;8136;53.172;8.256;2022-08-02T09:40:53;2.43;;;1.20;;
16063;SDS011;8136;53.172;8.256;2022-08-02T09:43:20;2.97;;;1.23;;
16063;SDS011;8136;53.172;8.256;2022-08-02T09:45:46;4.53;;;1.30;;
16063;SDS011;8136;53.172;8.256;2022-08-02T09:48:14;3.10;;;1.10;;
16063;SDS011;8136;53.172;8.256;2022-08-02T09:50:41;2.07;;;0.93;;
16063;SDS011;8136;53.172;8.256;2022-08-02T09:53:10;3.17;;;1.30;;
16063;SDS011;8136;53.172;8.256;2022-08-02T09:55:38;3.80;;;1.30;;
16063;SDS011;8136;53.172;8.256;2022-08-02T09:58:18;5.97;;;1.23;;
16063;SDS011;8136;53.172;8.256;2022-08-02T10:00:52;4.30;;;1.33;;
16063;SDS011;8136;53.172;8.256;2022-08-02T10:03:20;2.27;;;0.83;;
16063;SDS011;8136;53.172;8.256;2022-08-02T10:05:48;3.17;;;1.10;;
16063;SDS011;8136;53.172;8.256;2022-08-02T10:08:16;3.03;;;1.10;;
16063;SDS011;8136;53.172;8.256;2022-08-02T10:10:43;3.10;;;1.30;;
16063;SDS011;8136;53.172;8.256;2022-08-02T10:13:10;3.63;;;1.10;;
16063;SDS011;8136;53.172;8.256;2022-08-02T10:15:37;2.70;;;0.97;;
16063;SDS011;8136;53.172;8.256;2022-08-02T10:18:05;1.97;;;1.37;;
16063;SDS011;8136;53.172;8.256;2022-08-02T10:20:35;2.60;;;0.90;;
16063;SDS011;8136;53.172;8.256;2022-08-02T10:23:06;1.90;;;0.90;;
16063;SDS011;8136;53.172;8.256;2022-08-02T10:25:35;3.83;;;1.13;;
16063;SDS011;8136;53.172;8.256;2022-08-02T10:28:03;2.67;;;1.07;;
16063;SDS011;8136;53.172;8.256;2022-08-02T10:30:32;3.33;;;1.20;;
16063;SDS011;8136;53.172;8.256;2022-08-02T10:33:01;2.97;;;1.20;;
16063;SDS011;8136;53.172;8.256;2022-08-02T10:35:29;1.37;;;1.00;;
16063;SDS011;8136;53.172;8.256;2022-08-02T10:38:00;1.63;;;0.87;;
16063;SDS011;8136;53.172;8.256;2022-08-02T10:40:41;3.27;;;1.30;;
16063;SDS011;8136;53.172;8.256;2022-08-02T10:43:09;2.57;;;1.00;;
16063;SDS011;8136;53.172;8.256;2022-08-02T10:45:37;1.67;;;1.00;;
16063;SDS011;8136;53.172;8.256;2022-08-02T10:48:06;1.70;;;1.00;;
16063;SDS011;8136;53.172;8.256;2022-08-02T10:50:51;2.97;;;1.20;;
16063;SDS011;8136;53.172;8.256;2022-08-02T10:53:23;3.80;;;1.33;;
16063;SDS011;8136;53.172;8.256;2022-08-02T10:55:51;3.07;;;1.40;;
16063;SDS011;8136;53.172;8.256;2022-08-02T10:58:19;4.03;;;1.07;;
16063;SDS011;8136;53.172;8.256;2022-08-02T11:00:47;2.40;;;1.10;;
16063;SDS011;8136;53.172;8.256;2022-08-02T11:03:34;1.97;;;0.97;;
16063;SDS011;8136;53.172;8.256;2022-08-02T11:06:04;1.40;;;1.17;;
16063;SDS011;8136;53.172;8.256;2022-08-02T11:08:33;3.60;;;1.23;;
16063;SDS011;8136;53.172;8.256;2022-08-02T11:11:02;3.87;;;1.30;;
16063;SDS011;8136;53.172;8.256;2022-08-02T11:14:00;2.60;;;1.13;;
16063;SDS011;8136;53.172;8.256;2022-08-02T11:19:38;3.90;;;1.10;;
16063;SDS011;8136;53.172;8.256;2022-08-02T11:22:39;4.40;;;1.10;;
16063;SDS011;8136;53.172;8.256;2022-08-02T11:27:57;2.93;;;1.10;;
16063;SDS011;8136;53.172;8.256;2022-08-02T11:30:25;3.80;;;1.17;;
16063;SDS011;8136;53.172;8.256;2022-08-02T11:32:53;1.90;;;1.30;;
16063;SDS011;8136;53.172;8.256;2022-08-02T11:35:21;1.27;;;0.93;;
16063;SDS011;8136;53.172;8.256;2022-08-02T11:37:48;3.00;;;1.10;;
16063;SDS011;8136;53.172;8.256;2022-08-02T11:40:15;3.20;;;1.20;;
16063;SDS011;8136;53.172;8.256;2022-08-02T11:42:45;3.83;;;0.70;;
16063;SDS011;8136;53.172;8.256;2022-08-02T11:45:16;3.63;;;1.20;;
16063;SDS011;8136;53.172;8.256;2022-08-02T11:47:50;3.17;;;1.10;;
16063;SDS011;8136;53.172;8.256;2022-08-02T11:50:18;2.80;;;1.00;;
16063;SDS011;8136;53.172;8.256;2022-08-02T11:52:49;2.33;;;1.20;;
16063;SDS011;8136;53.172;8.256;2022-08-02T11:55:17;2.33;;;1.10;;
16063;SDS011;8136;53.172;8.256;2022-08-02T11:57:57;5.77;;;1.50;;
16063;SDS011;8136;53.172;8.256;2022-08-02T12:00:24;3.17;;;1.20;;
16063;SDS011;8136;53.172;8.256;2022-08-02T12:02:51;3.50;;;1.10;;
16063;SDS011;8136;53.172;8.256;2022-08-02T12:05:20;2.23;;;1.23;;
16063;SDS011;8136;53.172;8.256;2022-08-02T12:07:49;3.60;;;0.90;;
16063;SDS011;8136;53.172;8.256;2022-08-02T12:10:17;3.00;;;1.23;;
16063;SDS011;8136;53.172;8.256;2022-08-02T12:12:46;1.90;;;1.30;;
16063;SDS011;8136;53.172;8.256;2022-08-02T12:15:21;2.60;;;1.53;;
16063;SDS011;8136;53.172;8.256;2022-08-02T12:17:55;2.57;;;1.40;;
16063;SDS011;8136;53.172;8.256;2022-08-02T12:20:39;3.40;;;2.00;;
16063;SDS011;8136;53.172;8.256;2022-08-02T12:23:06;3.97;;;1.97;;
16063;SDS011;8136;53.172;8.256;2022-08-02T12:25:33;2.40;;;1.70;;
16063;SDS011;8136;53.172;8.256;2022-08-02T12:28:11;3.77;;;2.03;;
16063;SDS011;8136;53.172;8.256;2022-08-02T12:30:49;3.20;;;1.70;;
16063;SDS011;8136;53.172;8.256;2022-08-02T12:33:17;6.80;;;1.77;;
16063;SDS011;8136;53.172;8.256;2022-08-02T12:35:44;4.07;;;1.90;;
16063;SDS011;8136;53.172;8.256;2022-08-02T12:38:11;2.83;;;1.90;;
16063;SDS011;8136;53.172;8.256;2022-08-02T12:40:38;2.30;;;1.50;;
16063;SDS011;8136;53.172;8.256;2022-08-02T12:43:06;3.57;;;1.93;;
16063;SDS011;8136;53.172;8.256;2022-08-02T12:45:43;2.70;;;1.67;;
16063;SDS011;8136;53.172;8.256;2022-08-02T12:48:13;3.37;;;1.60;;
16063;SDS011;8136;53.172;8.256;2022-08-02T12:50:41;1.97;;;1.50;;
16063;SDS011;8136;53.172;8.256;2022-08-02T12:53:09;3.23;;;1.90;;
16063;SDS011;8136;53.172;8.256;2022-08-02T12:55:46;2.90;;;1.47;;
16063;SDS011;8136;53.172;8.256;2022-08-02T12:58:14;3.47;;;1.70;;
16063;SDS011;8136;53.172;8.256;2022-08-02T13:00:40;4.23;;;1.50;;
16063;SDS011;8136;53.172;8.256;2022-08-02T13:03:08;3.17;;;1.50;;
16063;SDS011;8136;53.172;8.256;2022-08-02T13:05:36;1.60;;;1.37;;
16063;SDS011;8136;53.172;8.256;2022-08-02T13:08:03;1.93;;;1.37;;
16063;SDS011;8136;53.172;8.256;2022-08-02T13:10:30;2.23;;;1.70;;
16063;SDS011;8136;53.172;8.256;2022-08-02T13:12:57;4.73;;;1.90;;
16063;SDS011;8136;53.172;8.256;2022-08-02T13:15:24;3.67;;;1.83;;
16063;SDS011;8136;53.172;8.256;2022-08-02T13:17:50;4.20;;;1.70;;
16063;SDS011;8136;53.172;8.256;2022-08-02T13:20:18;2.93;;;1.70;;
16063;SDS011;8136;53.172;8.256;2022-08-02T13:22:46;1.70;;;1.30;;
16063;SDS011;8136;53.172;8.256;2022-08-02T13:25:13;3.03;;;1.70;;
16063;SDS011;8136;53.172;8.256;2022-08-02T13:27:39;2.40;;;1.70;;
16063;SDS011;8136;53.172;8.256;2022-08-02T13:30:06;3.60;;;2.17;;
16063;SDS011;8136;53.172;8.256;2022-08-02T13:32:34;2.20;;;1.70;;
16063;SDS011;8136;53.172;8.256;2022-08-02T13:35:00;5.10;;;1.97;;
16063;SDS011;8136;53.172;8.256;2022-08-02T13:37:27;3.57;;;1.70;;
16063;SDS011;8136;53.172;8.256;2022-08-02T13:39:56;1.93;;;1.77;;
16063;SDS011;8136;53.172;8.256;2022-08-02T13:42:23;2.77;;;1.80;;
16063;SDS011;8136;53.172;8.256;2022-08-02T13:44:49;2.70;;;1.60;;
16063;SDS011;8136;53.172;8.256;2022-08-02T13:47:16;3.80;;;1.80;;
16063;SDS011;8136;53.172;8.256;2022-08-02T13:49:43;2.57;;;1.80;;
16063;SDS011;8136;53.172;8.256;2022-08-02T13:52:10;3.07;;;1.80;;
16063;SDS011;8136;53.172;8.256;2022-08-02T13:54:37;3.90;;;1.93;;
16063;SDS011;8136;53.172;8.256;2022-08-02T13:57:05;3.90;;;1.77;;
16063;SDS011;8136;53.172;8.256;2022-08-02T13:59:32;3.83;;;1.60;;
16063;SDS011;8136;53.172;8.256;2022-08-02T14:01:59;2.63;;;1.50;;
16063;SDS011;8136;53.172;8.256;2022-08-02T14:04:26;2.90;;;1.50;;
16063;SDS011;8136;53.172;8.256;2022-08-02T14:06:54;3.97;;;1.77;;
16063;SDS011;8136;53.172;8.256;2022-08-02T14:09:21;6.00;;;1.67;;
16063;SDS011;8136;53.172;8.256;2022-08-02T14:11:48;3.13;;;1.47;;
16063;SDS011;8136;53.172;8.256;2022-08-02T14:14:16;2.27;;;1.50;;
16063;SDS011;8136;53.172;8.256;2022-08-02T14:16:43;3.80;;;1.60;;
16063;SDS011;8136;53.172;8.256;2022-08-02T14:19:10;2.50;;;1.40;;
16063;SDS011;8136;53.172;8.256;2022-08-02T14:21:38;2.50;;;1.67;;
16063;SDS011;8136;53.172;8.256;2022-08-02T14:24:05;3.53;;;1.40;;
16063;SDS011;8136;53.172;8.256;2022-08-02T14:26:32;4.77;;;2.07;;
16063;SDS011;8136;53.172;8.256;2022-08-02T14:28:59;4.00;;;1.83;;
16063;SDS011;8136;53.172;8.256;2022-08-02T14:31:27;2.17;;;1.77;;
16063;SDS011;8136;53.172;8.256;2022-08-02T14:33:54;2.87;;;1.97;;
16063;SDS011;8136;53.172;8.256;2022-08-02T14:36:20;3.40;;;2.00;;
16063;SDS011;8136;53.172;8.256;2022-08-02T14:38:47;3.70;;;2.07;;
16063;SDS011;8136;53.172;8.256;2022-08-02T14:41:14;3.53;;;2.00;;
16063;SDS011;8136;53.172;8.256;2022-08-02T14:43:40;2.17;;;1.97;;
16063;SDS011;8136;53.172;8.256;2022-08-02T14:46:26;3.70;;;2.10;;
16063;SDS011;8136;53.172;8.256;2022-08-02T14:48:53;4.67;;;2.10;;
16063;SDS011;8136;53.172;8.256;2022-08-02T14:51:20;3.67;;;1.70;;
16063;SDS011;8136;53.172;8.256;2022-08-02T14:53:46;4.30;;;2.23;;
16063;SDS011;8136;53.172;8.256;2022-08-02T14:56:13;2.57;;;1.77;;
16063;SDS011;8136;53.172;8.256;2022-08-02T14:58:40;4.27;;;2.20;;
16063;SDS011;8136;53.172;8.256;2022-08-02T15:01:07;2.43;;;2.07;;
16063;SDS011;8136;53.172;8.256;2022-08-02T15:03:35;3.30;;;2.00;;
16063;SDS011;8136;53.172;8.256;2022-08-02T15:06:02;2.13;;;1.90;;
16063;SDS011;8136;53.172;8.256;2022-08-02T15:08:29;2.27;;;1.90;;
16063;SDS011;8136;53.172;8.256;2022-08-02T15:10:55;2.30;;;2.03;;
16063;SDS011;8136;53.172;8.256;2022-08-02T15:13:22;3.10;;;1.70;;
16063;SDS011;8136;53.172;8.256;2022-08-02T15:15:49;6.23;;;1.80;;
16063;SDS011;8136;53.172;8.256;2022-08-02T15:18:16;1.87;;;1.50;;
16063;SDS011;8136;53.172;8.256;2022-08-02T15:20:44;4.00;;;1.67;;